sensor_id;sensor_type;location;lat;lon;timestamp;pressure;altitude;pressure_sealevel;temperature;humidity
56514;BME280;62152;52.078;8.414;2023-05-23T00:01:25;100039.47;;;20.85;53.89
56514;BME280;62152;52.078;8.414;2023-05-23T00:05:26;100033.94;;;20.85;53.80
56514;BME280;62152;52.078;8.414;2023-05-23T00:09:29;100036.69;;;20.85;53.96
56514;BME280;62152;52.078;8.414;2023-05-23T00:13:29;100032.38;;;20.84;53.31
56514;BME280;62152;52.078;8.414;2023-05-23T00:17:30;100026.84;;;20.84;53.53
56514;BME280;62152;52.078;8.414;2023-05-23T00:21:31;100030.41;;;20.85;54.03
56514;BME280;62152;52.078;8.414;2023-05-23T00:25:33;100033.16;;;20.85;54.18
56514;BME280;62152;52.078;8.414;2023-05-23T00:29:35;100035.13;;;20.84;53.29
56514;BME280;62152;52.078;8.414;2023-05-23T00:33:35;100049.69;;;20.85;53.41
56514;BME280;62152;52.078;8.414;2023-05-23T00:37:36;100051.66;;;20.84;53.97
56514;BME280;62152;52.078;8.414;2023-05-23T00:41:38;100038.28;;;20.83;53.52
56514;BME280;62152;52.078;8.414;2023-05-23T00:45:39;100040.25;;;20.82;53.32
56514;BME280;62152;52.078;8.414;2023-05-23T00:49:40;100048.50;;;20.82;53.40
56514;BME280;62152;52.078;8.414;2023-05-23T00:53:41;100054.03;;;20.82;53.50
56514;BME280;62152;52.078;8.414;2023-05-23T00:57:44;100052.84;;;20.83;53.92
56514;BME280;62152;52.078;8.414;2023-05-23T01:01:47;100049.31;;;20.83;53.43
56514;BME280;62152;52.078;8.414;2023-05-23T01:05:50;100056.78;;;20.82;53.46
56514;BME280;62152;52.078;8.414;2023-05-23T01:09:51;100056.00;;;20.82;53.68
56514;BME280;62152;52.078;8.414;2023-05-23T01:14:00;100053.25;;;20.82;53.39
56514;BME280;62152;52.078;8.414;2023-05-23T01:18:09;100044.19;;;20.81;53.38
56514;BME280;62152;52.078;8.414;2023-05-23T01:22:24;100062.28;;;20.82;54.12
56514;BME280;62152;52.078;8.414;2023-05-23T01:26:51;100055.22;;;20.81;53.78
56514;BME280;62152;52.078;8.414;2023-05-23T01:31:03;100054.41;;;20.81;53.40
56514;BME280;62152;52.078;8.414;2023-05-23T01:35:09;100059.94;;;20.81;53.99
56514;BME280;62152;52.078;8.414;2023-05-23T01:39:11;100068.22;;;20.81;53.94
56514;BME280;62152;52.078;8.414;2023-05-23T01:43:12;100078.44;;;20.80;54.20
56514;BME280;62152;52.078;8.414;2023-05-23T01:47:15;100077.25;;;20.81;53.74
56514;BME280;62152;52.078;8.414;2023-05-23T01:51:17;100070.97;;;20.81;54.16
56514;BME280;62152;52.078;8.414;2023-05-23T01:55:20;100081.19;;;20.80;53.92
56514;BME280;62152;52.078;8.414;2023-05-23T01:59:22;100094.97;;;20.80;53.56
56514;BME280;62152;52.078;8.414;2023-05-23T02:03:24;100093.38;;;20.79;53.59
56514;BME280;62152;52.078;8.414;2023-05-23T02:07:26;100096.13;;;20.79;54.23
56514;BME280;62152;52.078;8.414;2023-05-23T02:11:27;100100.50;;;20.80;54.21
56514;BME280;62152;52.078;8.414;2023-05-23T02:15:27;100103.25;;;20.80;53.90
56514;BME280;62152;52.078;8.414;2023-05-23T02:19:29;100098.88;;;20.79;53.75
56514;BME280;62152;52.078;8.414;2023-05-23T02:23:30;100098.88;;;20.79;53.60
56514;BME280;62152;52.078;8.414;2023-05-23T02:27:31;100106.38;;;20.79;53.92
56514;BME280;62152;52.078;8.414;2023-05-23T02:31:33;100100.84;;;20.79;54.07
56514;BME280;62152;52.078;8.414;2023-05-23T02:35:35;100105.59;;;20.78;54.27
56514;BME280;62152;52.078;8.414;2023-05-23T02:39:36;100107.16;;;20.79;53.79
56514;BME280;62152;52.078;8.414;2023-05-23T02:43:37;100102.81;;;20.78;54.17
56514;BME280;62152;52.078;8.414;2023-05-23T02:47:39;100107.56;;;20.77;53.51
56514;BME280;62152;52.078;8.414;2023-05-23T02:51:41;100115.81;;;20.77;53.57
56514;BME280;62152;52.078;8.414;2023-05-23T02:55:42;100104.78;;;20.77;54.34
56514;BME280;62152;52.078;8.414;2023-05-23T02:59:42;100104.00;;;20.77;53.94
56514;BME280;62152;52.078;8.414;2023-05-23T03:03:43;100101.25;;;20.77;54.03
56514;BME280;62152;52.078;8.414;2023-05-23T03:07:45;100096.91;;;20.76;54.37
56514;BME280;62152;52.078;8.414;2023-05-23T03:11:46;100104.00;;;20.77;54.23
56514;BME280;62152;52.078;8.414;2023-05-23T03:15:47;100098.88;;;20.75;53.94
56514;BME280;62152;52.078;8.414;2023-05-23T03:19:47;100095.75;;;20.77;54.09
56514;BME280;62152;52.078;8.414;2023-05-23T03:23:50;100096.13;;;20.75;54.37
56514;BME280;62152;52.078;8.414;2023-05-23T03:27:50;100104.00;;;20.77;53.95
56514;BME280;62152;52.078;8.414;2023-05-23T03:31:51;100095.34;;;20.79;54.57
56514;BME280;62152;52.078;8.414;2023-05-23T03:35:52;100100.84;;;20.79;53.97
56514;BME280;62152;52.078;8.414;2023-05-23T03:39:54;100102.03;;;20.77;53.86
56514;BME280;62152;52.078;8.414;2023-05-23T03:43:55;100098.50;;;20.77;53.79
56514;BME280;62152;52.078;8.414;2023-05-23T03:47:56;100100.06;;;20.78;53.97
56514;BME280;62152;52.078;8.414;2023-05-23T03:51:57;100109.53;;;20.77;54.04
56514;BME280;62152;52.078;8.414;2023-05-23T03:55:59;100109.53;;;20.77;54.39
56514;BME280;62152;52.078;8.414;2023-05-23T04:00:00;100111.88;;;20.75;54.04
56514;BME280;62152;52.078;8.414;2023-05-23T04:04:04;100101.72;;;20.28;54.16
56514;BME280;62152;52.078;8.414;2023-05-23T04:08:08;100109.09;;;20.13;55.46
56514;BME280;62152;52.078;8.414;2023-05-23T04:12:10;100107.91;;;20.14;54.67
56514;BME280;62152;52.078;8.414;2023-05-23T04:16:12;100110.06;;;20.38;54.24
56514;BME280;62152;52.078;8.414;2023-05-23T04:20:13;100105.44;;;20.46;54.01
56514;BME280;62152;52.078;8.414;2023-05-23T04:24:14;100108.59;;;20.52;53.56
56514;BME280;62152;52.078;8.414;2023-05-23T04:28:16;100122.78;;;20.54;54.28
56514;BME280;62152;52.078;8.414;2023-05-23T04:32:17;100114.91;;;20.56;53.53
56514;BME280;62152;52.078;8.414;2023-05-23T04:36:19;100128.31;;;20.57;54.22
56514;BME280;62152;52.078;8.414;2023-05-23T04:40:25;100133.03;;;20.57;53.63
56514;BME280;62152;52.078;8.414;2023-05-23T04:44:42;100131.84;;;20.58;53.73
56514;BME280;62152;52.078;8.414;2023-05-23T04:48:54;100129.88;;;20.58;53.35
56514;BME280;62152;52.078;8.414;2023-05-23T04:52:55;100133.41;;;20.59;53.48
56514;BME280;62152;52.078;8.414;2023-05-23T04:56:56;100138.94;;;20.59;53.42
56514;BME280;62152;52.078;8.414;2023-05-23T05:01:00;100142.50;;;20.59;53.94
56514;BME280;62152;52.078;8.414;2023-05-23T05:05:01;100148.81;;;20.60;53.54
56514;BME280;62152;52.078;8.414;2023-05-23T05:09:03;100154.31;;;20.60;53.63
56514;BME280;62152;52.078;8.414;2023-05-23T05:13:04;100148.81;;;20.60;53.08
56514;BME280;62152;52.078;8.414;2023-05-23T05:17:15;100157.06;;;20.60;53.43
56514;BME280;62152;52.078;8.414;2023-05-23T05:21:34;100156.28;;;20.59;53.11
56514;BME280;62152;52.078;8.414;2023-05-23T05:25:35;100159.03;;;20.59;53.76
56514;BME280;62152;52.078;8.414;2023-05-23T05:29:36;100157.06;;;20.60;53.58
56514;BME280;62152;52.078;8.414;2023-05-23T05:33:38;100156.28;;;20.59;53.70
56514;BME280;62152;52.078;8.414;2023-05-23T05:37:44;100156.28;;;20.59;53.15
56514;BME280;62152;52.078;8.414;2023-05-23T05:41:46;100181.09;;;20.59;53.17
56514;BME280;62152;52.078;8.414;2023-05-23T05:45:48;100186.59;;;20.59;53.20
56514;BME280;62152;52.078;8.414;2023-05-23T05:49:50;100181.88;;;20.60;53.22
56514;BME280;62152;52.078;8.414;2023-05-23T05:53:51;100181.88;;;20.60;53.13
56514;BME280;62152;52.078;8.414;2023-05-23T05:57:52;100181.09;;;20.59;53.53
56514;BME280;62152;52.078;8.414;2023-05-23T06:01:53;100191.28;;;20.59;53.76
56514;BME280;62152;52.078;8.414;2023-05-23T06:05:56;100183.44;;;20.61;53.28
56514;BME280;62152;52.078;8.414;2023-05-23T06:09:57;100190.50;;;20.58;53.67
56514;BME280;62152;52.078;8.414;2023-05-23T06:13:58;100194.03;;;20.59;53.60
56514;BME280;62152;52.078;8.414;2023-05-23T06:17:58;100197.63;;;20.59;53.41
56514;BME280;62152;52.078;8.414;2023-05-23T06:22:01;100199.56;;;20.59;53.53
56514;BME280;62152;52.078;8.414;2023-05-23T06:26:02;100207.81;;;20.59;53.16
56514;BME280;62152;52.078;8.414;2023-05-23T06:30:04;100201.53;;;20.58;53.42
56514;BME280;62152;52.078;8.414;2023-05-23T06:34:04;100201.53;;;20.58;53.56
56514;BME280;62152;52.078;8.414;2023-05-23T06:38:07;100204.28;;;20.58;52.86
56514;BME280;62152;52.078;8.414;2023-05-23T06:42:08;100218.06;;;20.58;53.53
56514;BME280;62152;52.078;8.414;2023-05-23T06:46:25;100218.84;;;20.59;53.61
56514;BME280;62152;52.078;8.414;2023-05-23T06:50:26;100231.03;;;20.58;53.09
56514;BME280;62152;52.078;8.414;2023-05-23T06:54:29;100233.78;;;20.58;53.42
56514;BME280;62152;52.078;8.414;2023-05-23T06:58:31;100244.03;;;20.57;53.37
56514;BME280;62152;52.078;8.414;2023-05-23T07:02:33;100240.88;;;20.59;53.37
56514;BME280;62152;52.078;8.414;2023-05-23T07:06:36;100244.81;;;20.58;52.91
56514;BME280;62152;52.078;8.414;2023-05-23T07:10:39;100250.34;;;20.58;53.44
56514;BME280;62152;52.078;8.414;2023-05-23T07:14:51;100255.84;;;20.58;53.50
56514;BME280;62152;52.078;8.414;2023-05-23T07:18:54;100262.16;;;20.58;53.04
56514;BME280;62152;52.078;8.414;2023-05-23T07:22:56;100266.06;;;20.57;53.41
56514;BME280;62152;52.078;8.414;2023-05-23T07:26:59;100277.88;;;20.58;53.13
56514;BME280;62152;52.078;8.414;2023-05-23T07:31:00;100295.22;;;20.58;53.45
56514;BME280;62152;52.078;8.414;2023-05-23T07:35:01;100294.41;;;20.58;53.42
56514;BME280;62152;52.078;8.414;2023-05-23T07:39:02;100300.72;;;20.58;53.13
56514;BME280;62152;52.078;8.414;2023-05-23T07:43:05;100303.47;;;20.58;53.28
56514;BME280;62152;52.078;8.414;2023-05-23T07:47:06;100307.03;;;20.59;53.16
56514;BME280;62152;52.078;8.414;2023-05-23T07:51:07;100316.47;;;20.58;53.08
56514;BME280;62152;52.078;8.414;2023-05-23T07:55:08;100324.72;;;20.58;53.13
56514;BME280;62152;52.078;8.414;2023-05-23T07:59:11;100320.81;;;20.59;52.98
56514;BME280;62152;52.078;8.414;2023-05-23T08:03:12;100326.31;;;20.59;52.72
56514;BME280;62152;52.078;8.414;2023-05-23T08:07:25;100339.28;;;20.58;52.80
56514;BME280;62152;52.078;8.414;2023-05-23T08:11:33;100335.75;;;20.58;52.71
56514;BME280;62152;52.078;8.414;2023-05-23T08:15:36;100345.59;;;20.59;52.87
56514;BME280;62152;52.078;8.414;2023-05-23T08:19:44;100345.59;;;20.59;53.05
56514;BME280;62152;52.078;8.414;2023-05-23T08:23:44;100357.44;;;20.59;53.12
56514;BME280;62152;52.078;8.414;2023-05-23T08:27:46;100373.16;;;20.59;53.17
56514;BME280;62152;52.078;8.414;2023-05-23T08:32:07;100367.66;;;20.59;52.76
56514;BME280;62152;52.078;8.414;2023-05-23T08:36:08;100360.56;;;20.58;52.88
56514;BME280;62152;52.078;8.414;2023-05-23T08:40:13;100364.09;;;20.58;52.62
56514;BME280;62152;52.078;8.414;2023-05-23T08:44:22;100371.56;;;20.58;52.96
56514;BME280;62152;52.078;8.414;2023-05-23T08:48:30;100377.09;;;20.58;53.24
56514;BME280;62152;52.078;8.414;2023-05-23T08:52:42;100381.44;;;20.59;52.88
56514;BME280;62152;52.078;8.414;2023-05-23T08:56:47;100393.63;;;20.58;53.16
56514;BME280;62152;52.078;8.414;2023-05-23T09:00:48;100399.94;;;20.58;52.97
56514;BME280;62152;52.078;8.414;2023-05-23T09:04:53;100399.13;;;20.58;53.28
56514;BME280;62152;52.078;8.414;2023-05-23T09:08:57;100410.16;;;20.58;52.95
56514;BME280;62152;52.078;8.414;2023-05-23T09:12:58;100414.88;;;20.57;53.30
56514;BME280;62152;52.078;8.414;2023-05-23T09:17:00;100421.97;;;20.58;53.19
56514;BME280;62152;52.078;8.414;2023-05-23T09:21:03;100431.41;;;20.57;52.80
56514;BME280;62152;52.078;8.414;2023-05-23T09:25:08;100430.63;;;20.57;53.13
56514;BME280;62152;52.078;8.414;2023-05-23T09:29:09;100439.69;;;20.57;53.06
56514;BME280;62152;52.078;8.414;2023-05-23T09:33:12;100437.72;;;20.58;53.18
56514;BME280;62152;52.078;8.414;2023-05-23T09:37:15;100452.28;;;20.58;52.58
56514;BME280;62152;52.078;8.414;2023-05-23T09:41:19;100448.72;;;20.58;53.03
56514;BME280;62152;52.078;8.414;2023-05-23T09:45:20;100451.13;;;20.59;53.08
56514;BME280;62152;52.078;8.414;2023-05-23T09:49:29;100464.91;;;20.59;52.65
56514;BME280;62152;52.078;8.414;2023-05-23T09:53:31;100459.75;;;20.58;53.20
56514;BME280;62152;52.078;8.414;2023-05-23T09:57:34;100468.03;;;20.58;53.09
56514;BME280;62152;52.078;8.414;2023-05-23T10:01:35;100482.59;;;20.58;52.48
56514;BME280;62152;52.078;8.414;2023-05-23T10:05:41;100476.28;;;20.58;52.76
56514;BME280;62152;52.078;8.414;2023-05-23T10:09:49;100482.59;;;20.58;52.73
56514;BME280;62152;52.078;8.414;2023-05-23T10:13:55;100493.63;;;20.58;52.95
56514;BME280;62152;52.078;8.414;2023-05-23T10:18:07;100492.81;;;20.58;52.86
56514;BME280;62152;52.078;8.414;2023-05-23T10:22:13;100495.59;;;20.58;52.61
56514;BME280;62152;52.078;8.414;2023-05-23T10:26:16;100505.03;;;20.57;52.63
56514;BME280;62152;52.078;8.414;2023-05-23T10:30:18;100503.13;;;20.61;52.45
56514;BME280;62152;52.078;8.414;2023-05-23T10:34:28;100501.94;;;20.62;53.03
56514;BME280;62152;52.078;8.414;2023-05-23T10:38:36;100499.97;;;20.62;52.98
56514;BME280;62152;52.078;8.414;2023-05-23T10:42:51;100502.34;;;20.64;52.47
56514;BME280;62152;52.078;8.414;2023-05-23T10:46:58;100496.84;;;20.64;53.02
56514;BME280;62152;52.078;8.414;2023-05-23T10:51:03;100520.13;;;20.66;52.28
56514;BME280;62152;52.078;8.414;2023-05-23T10:55:12;100515.00;;;20.68;52.42
56514;BME280;62152;52.078;8.414;2023-05-23T10:59:20;100518.97;;;20.71;52.18
56514;BME280;62152;52.078;8.414;2023-05-23T11:03:33;100521.31;;;20.69;52.20
56514;BME280;62152;52.078;8.414;2023-05-23T11:07:34;100526.44;;;20.70;52.32
56514;BME280;62152;52.078;8.414;2023-05-23T11:11:51;100529.25;;;20.74;52.37
56514;BME280;62152;52.078;8.414;2023-05-23T11:16:24;100532.44;;;20.76;52.07
56514;BME280;62152;52.078;8.414;2023-05-23T11:20:26;100527.28;;;20.74;52.46
56514;BME280;62152;52.078;8.414;2023-05-23T11:24:50;100531.16;;;20.70;52.66
56514;BME280;62152;52.078;8.414;2023-05-23T11:28:55;100552.81;;;20.68;52.37
56514;BME280;62152;52.078;8.414;2023-05-23T11:32:57;100554.38;;;20.69;52.73
56514;BME280;62152;52.078;8.414;2023-05-23T11:36:58;100550.06;;;20.71;52.55
56514;BME280;62152;52.078;8.414;2023-05-23T11:40:59;100549.72;;;20.73;52.83
56514;BME280;62152;52.078;8.414;2023-05-23T11:45:00;100544.63;;;20.75;52.66
56514;BME280;62152;52.078;8.414;2023-05-23T11:49:09;100563.53;;;20.76;52.65
56514;BME280;62152;52.078;8.414;2023-05-23T11:53:11;100562.38;;;20.77;52.31
56514;BME280;62152;52.078;8.414;2023-05-23T11:57:12;100559.66;;;20.81;52.36
56514;BME280;62152;52.078;8.414;2023-05-23T12:01:13;100580.94;;;20.81;52.26
56514;BME280;62152;52.078;8.414;2023-05-23T12:05:15;100577.38;;;20.80;52.65
56514;BME280;62152;52.078;8.414;2023-05-23T12:09:16;100579.38;;;20.83;52.08
56514;BME280;62152;52.078;8.414;2023-05-23T12:13:17;100581.34;;;20.83;51.96
56514;BME280;62152;52.078;8.414;2023-05-23T12:17:18;100583.31;;;20.82;52.43
56514;BME280;62152;52.078;8.414;2023-05-23T12:21:24;100573.44;;;20.81;52.64
56514;BME280;62152;52.078;8.414;2023-05-23T12:25:25;100571.09;;;20.83;52.17
56514;BME280;62152;52.078;8.414;2023-05-23T12:29:28;100580.97;;;20.84;52.26
56514;BME280;62152;52.078;8.414;2023-05-23T12:33:31;100559.75;;;20.88;52.08
56514;BME280;62152;52.078;8.414;2023-05-23T12:37:33;100566.44;;;20.87;52.38
56514;BME280;62152;52.078;8.414;2023-05-23T12:41:34;100574.72;;;20.87;52.19
56514;BME280;62152;52.078;8.414;2023-05-23T12:45:35;100563.28;;;20.89;51.87
56514;BME280;62152;52.078;8.414;2023-05-23T12:49:37;100568.81;;;20.89;51.67
56514;BME280;62152;52.078;8.414;2023-05-23T12:53:39;100577.50;;;20.91;52.20
56514;BME280;62152;52.078;8.414;2023-05-23T12:57:40;100584.97;;;20.90;51.58
56514;BME280;62152;52.078;8.414;2023-05-23T13:01:41;100589.31;;;20.91;51.58
56514;BME280;62152;52.078;8.414;2023-05-23T13:05:42;100587.72;;;20.90;51.54
56514;BME280;62152;52.078;8.414;2023-05-23T13:09:44;100589.28;;;20.88;52.23
56514;BME280;62152;52.078;8.414;2023-05-23T13:13:45;100587.31;;;20.88;52.06
56514;BME280;62152;52.078;8.414;2023-05-23T13:17:46;100598.75;;;20.90;52.13
56514;BME280;62152;52.078;8.414;2023-05-23T13:21:47;100594.81;;;20.91;51.78
56514;BME280;62152;52.078;8.414;2023-05-23T13:25:50;100601.94;;;20.92;51.55
56514;BME280;62152;52.078;8.414;2023-05-23T13:29:51;100605.47;;;20.93;51.40
56514;BME280;62152;52.078;8.414;2023-05-23T13:33:52;100601.13;;;20.92;52.08
56514;BME280;62152;52.078;8.414;2023-05-23T13:37:53;100594.09;;;20.94;51.45
56514;BME280;62152;52.078;8.414;2023-05-23T13:41:55;100600.41;;;20.95;51.90
56514;BME280;62152;52.078;8.414;2023-05-23T13:45:56;100602.38;;;20.94;51.99
56514;BME280;62152;52.078;8.414;2023-05-23T13:49:57;100605.13;;;20.94;51.54
56514;BME280;62152;52.078;8.414;2023-05-23T13:53:57;100600.78;;;20.93;51.44
56514;BME280;62152;52.078;8.414;2023-05-23T13:58:00;100613.75;;;20.93;52.01
56514;BME280;62152;52.078;8.414;2023-05-23T14:02:00;100611.00;;;20.93;52.12
56514;BME280;62152;52.078;8.414;2023-05-23T14:06:01;100617.31;;;20.93;51.51
56514;BME280;62152;52.078;8.414;2023-05-23T14:10:02;100607.88;;;20.94;51.92
56514;BME280;62152;52.078;8.414;2023-05-23T14:14:05;100606.69;;;20.95;51.35
56514;BME280;62152;52.078;8.414;2023-05-23T14:18:06;100601.56;;;20.94;51.73
56514;BME280;62152;52.078;8.414;2023-05-23T14:22:07;100609.41;;;20.92;51.48
56514;BME280;62152;52.078;8.414;2023-05-23T14:26:07;100612.94;;;20.92;51.15
56514;BME280;62152;52.078;8.414;2023-05-23T14:30:10;100616.16;;;20.94;51.48
56514;BME280;62152;52.078;8.414;2023-05-23T14:34:11;100614.97;;;20.95;51.17
56514;BME280;62152;52.078;8.414;2023-05-23T14:38:12;100629.56;;;20.96;51.90
56514;BME280;62152;52.078;8.414;2023-05-23T14:42:13;100621.66;;;20.94;51.32
56514;BME280;62152;52.078;8.414;2023-05-23T14:46:16;100626.31;;;20.90;51.68
56514;BME280;62152;52.078;8.414;2023-05-23T14:50:17;100632.22;;;20.89;51.25
56514;BME280;62152;52.078;8.414;2023-05-23T14:54:18;100623.16;;;20.88;51.30
56514;BME280;62152;52.078;8.414;2023-05-23T14:58:20;100633.41;;;20.88;51.82
56514;BME280;62152;52.078;8.414;2023-05-23T15:02:22;100629.47;;;20.89;51.82
56514;BME280;62152;52.078;8.414;2023-05-23T15:06:23;100635.00;;;20.92;51.38
56514;BME280;62152;52.078;8.414;2023-05-23T15:10:24;100622.47;;;20.98;50.96
56514;BME280;62152;52.078;8.414;2023-05-23T15:14:25;100624.16;;;21.07;50.63
56514;BME280;62152;52.078;8.414;2023-05-23T15:18:27;100623.81;;;21.12;51.11
56514;BME280;62152;52.078;8.414;2023-05-23T15:22:28;100636.41;;;21.09;51.13
56514;BME280;62152;52.078;8.414;2023-05-23T15:26:28;100622.72;;;21.16;50.09
56514;BME280;62152;52.078;8.414;2023-05-23T15:30:29;100633.25;;;21.07;49.95
56514;BME280;62152;52.078;8.414;2023-05-23T15:34:31;100628.78;;;20.99;48.90
56514;BME280;62152;52.078;8.414;2023-05-23T15:38:32;100617.03;;;21.36;48.94
56514;BME280;62152;52.078;8.414;2023-05-23T15:42:34;100629.69;;;21.77;45.85
56514;BME280;62152;52.078;8.414;2023-05-23T15:46:34;100633.66;;;21.09;46.93
56514;BME280;62152;52.078;8.414;2023-05-23T15:50:37;100636.28;;;20.98;45.88
56514;BME280;62152;52.078;8.414;2023-05-23T15:54:37;100638.31;;;21.05;46.43
56514;BME280;62152;52.078;8.414;2023-05-23T15:58:38;100626.56;;;21.08;45.29
56514;BME280;62152;52.078;8.414;2023-05-23T16:02:39;100633.19;;;21.03;43.86
56514;BME280;62152;52.078;8.414;2023-05-23T16:06:41;100637.69;;;20.85;43.73
56514;BME280;62152;52.078;8.414;2023-05-23T16:10:42;100625.28;;;20.72;42.91
56514;BME280;62152;52.078;8.414;2023-05-23T16:14:43;100628.22;;;20.56;44.10
56514;BME280;62152;52.078;8.414;2023-05-23T16:18:43;100629.34;;;20.52;44.16
56514;BME280;62152;52.078;8.414;2023-05-23T16:22:46;100633.03;;;20.59;43.37
56514;BME280;62152;52.078;8.414;2023-05-23T16:26:46;100634.94;;;20.59;43.11
56514;BME280;62152;52.078;8.414;2023-05-23T16:30:48;100636.88;;;20.55;44.24
56514;BME280;62152;52.078;8.414;2023-05-23T16:34:49;100629.19;;;20.41;43.54
56514;BME280;62152;52.078;8.414;2023-05-23T16:38:51;100647.44;;;20.49;45.05
56514;BME280;62152;52.078;8.414;2023-05-23T16:42:52;100627.34;;;20.48;45.65
56514;BME280;62152;52.078;8.414;2023-05-23T16:46:53;100639.63;;;20.55;46.46
56514;BME280;62152;52.078;8.414;2023-05-23T16:50:55;100631.31;;;20.51;45.85
56514;BME280;62152;52.078;8.414;2023-05-23T16:54:58;100633.84;;;20.63;46.22
56514;BME280;62152;52.078;8.414;2023-05-23T16:58:58;100641.91;;;20.49;45.73
56514;BME280;62152;52.078;8.414;2023-05-23T17:03:00;100643.03;;;20.44;45.44
56514;BME280;62152;52.078;8.414;2023-05-23T17:07:01;100646.63;;;20.75;46.01
56514;BME280;62152;52.078;8.414;2023-05-23T17:11:03;100636.41;;;20.79;45.74
56514;BME280;62152;52.078;8.414;2023-05-23T17:15:05;100634.69;;;20.67;45.08
56514;BME280;62152;52.078;8.414;2023-05-23T17:19:06;100639.31;;;20.60;45.71
56514;BME280;62152;52.078;8.414;2023-05-23T17:23:07;100647.91;;;20.55;45.13
56514;BME280;62152;52.078;8.414;2023-05-23T17:27:09;100637.88;;;20.69;44.36
56514;BME280;62152;52.078;8.414;2023-05-23T17:31:09;100638.09;;;20.57;44.02
56514;BME280;62152;52.078;8.414;2023-05-23T17:35:10;100642.31;;;20.51;44.05
56514;BME280;62152;52.078;8.414;2023-05-23T17:39:11;100647.50;;;20.53;44.63
56514;BME280;62152;52.078;8.414;2023-05-23T17:43:13;100650.56;;;20.47;44.09
56514;BME280;62152;52.078;8.414;2023-05-23T17:47:14;100654.91;;;20.48;44.58
56514;BME280;62152;52.078;8.414;2023-05-23T17:51:15;100650.59;;;20.25;44.14
56514;BME280;62152;52.078;8.414;2023-05-23T17:55:16;100654.09;;;20.48;44.96
56514;BME280;62152;52.078;8.414;2023-05-23T17:59:18;100658.06;;;20.51;44.67
56514;BME280;62152;52.078;8.414;2023-05-23T18:03:18;100658.69;;;20.40;43.93
56514;BME280;62152;52.078;8.414;2023-05-23T18:07:19;100667.94;;;20.29;43.83
56514;BME280;62152;52.078;8.414;2023-05-23T18:11:21;100671.78;;;20.24;44.11
56514;BME280;62152;52.078;8.414;2023-05-23T18:15:23;100673.34;;;20.21;43.80
56514;BME280;62152;52.078;8.414;2023-05-23T18:19:24;100680.06;;;20.24;44.09
56514;BME280;62152;52.078;8.414;2023-05-23T18:23:25;100674.09;;;20.18;43.30
56514;BME280;62152;52.078;8.414;2023-05-23T18:27:26;100672.47;;;20.17;43.55
56514;BME280;62152;52.078;8.414;2023-05-23T18:31:28;100685.81;;;20.15;44.16
56514;BME280;62152;52.078;8.414;2023-05-23T18:35:28;100686.50;;;20.09;42.44
56514;BME280;62152;52.078;8.414;2023-05-23T18:39:29;100681.00;;;20.09;43.87
56514;BME280;62152;52.078;8.414;2023-05-23T18:43:30;100695.13;;;20.07;43.40
56514;BME280;62152;52.078;8.414;2023-05-23T18:47:33;100693.34;;;19.95;43.33
56514;BME280;62152;52.078;8.414;2023-05-23T18:51:34;100703.94;;;19.93;42.11
56514;BME280;62152;52.078;8.414;2023-05-23T18:55:35;100706.78;;;19.97;44.09
56514;BME280;62152;52.078;8.414;2023-05-23T18:59:36;100707.38;;;20.33;45.27
56514;BME280;62152;52.078;8.414;2023-05-23T19:03:38;100723.38;;;20.46;45.94
56514;BME280;62152;52.078;8.414;2023-05-23T19:07:38;100731.28;;;20.52;45.89
56514;BME280;62152;52.078;8.414;2023-05-23T19:11:39;100734.91;;;20.56;46.41
56514;BME280;62152;52.078;8.414;2023-05-23T19:15:40;100735.78;;;20.60;46.33
56514;BME280;62152;52.078;8.414;2023-05-23T19:19:42;100748.81;;;20.63;46.48
56514;BME280;62152;52.078;8.414;2023-05-23T19:23:43;100761.50;;;20.67;47.04
56514;BME280;62152;52.078;8.414;2023-05-23T19:27:44;100757.94;;;20.67;47.17
56514;BME280;62152;52.078;8.414;2023-05-23T19:31:45;100757.94;;;20.67;47.12
56514;BME280;62152;52.078;8.414;2023-05-23T19:35:47;100763.44;;;20.67;47.28
56514;BME280;62152;52.078;8.414;2023-05-23T19:39:48;100769.00;;;20.70;47.36
56514;BME280;62152;52.078;8.414;2023-05-23T19:43:49;100774.81;;;20.65;47.70
56514;BME280;62152;52.078;8.414;2023-05-23T19:47:49;100784.25;;;20.64;47.59
56514;BME280;62152;52.078;8.414;2023-05-23T19:51:52;100783.84;;;20.62;47.75
56514;BME280;62152;52.078;8.414;2023-05-23T19:55:52;100789.72;;;20.61;47.67
56514;BME280;62152;52.078;8.414;2023-05-23T19:59:53;100790.91;;;20.60;47.56
56514;BME280;62152;52.078;8.414;2023-05-23T20:03:54;100785.38;;;20.60;47.81
56514;BME280;62152;52.078;8.414;2023-05-23T20:07:56;100787.34;;;20.59;48.17
56514;BME280;62152;52.078;8.414;2023-05-23T20:11:57;100792.88;;;20.59;48.17
56514;BME280;62152;52.078;8.414;2023-05-23T20:15:58;100803.06;;;20.59;48.38
56514;BME280;62152;52.078;8.414;2023-05-23T20:19:59;100795.97;;;20.58;47.94
56514;BME280;62152;52.078;8.414;2023-05-23T20:24:01;100807.00;;;20.58;48.49
56514;BME280;62152;52.078;8.414;2023-05-23T20:28:02;100807.78;;;20.58;48.60
56514;BME280;62152;52.078;8.414;2023-05-23T20:32:03;100812.50;;;20.58;48.10
56514;BME280;62152;52.078;8.414;2023-05-23T20:36:04;100816.41;;;20.57;48.29
56514;BME280;62152;52.078;8.414;2023-05-23T20:40:07;100814.84;;;20.56;48.76
56514;BME280;62152;52.078;8.414;2023-05-23T20:44:08;100807.75;;;20.55;48.54
56514;BME280;62152;52.078;8.414;2023-05-23T20:48:09;100819.94;;;20.54;48.19
56514;BME280;62152;52.078;8.414;2023-05-23T20:52:10;100819.47;;;20.52;48.61
56514;BME280;62152;52.078;8.414;2023-05-23T20:56:12;100828.56;;;20.52;48.54
56514;BME280;62152;52.078;8.414;2023-05-23T21:00:14;100831.66;;;20.51;48.17
56514;BME280;62152;52.078;8.414;2023-05-23T21:04:15;100828.50;;;20.48;48.68
56514;BME280;62152;52.078;8.414;2023-05-23T21:08:16;100830.47;;;20.48;48.05